Time;durP1;ratioP1;P1;durP2;ratioP2;P2;SDS_P1;SDS_P2;PMS_P1;PMS_P2;Temp;Humidity;BMP_temperature;BMP_pressure;BME280_temperature;BME280_humidity;BME280_pressure;Samples;Min_cycle;Max_cycle;Signal;HPM_P1;HPM_P2
2023/09/23 00:01:38;;;;;;;0.57;0.57;;;21.70;99.90;;;;;;5060478;28;20111;-75
2023/09/23 00:04:04;;;;;;;0.57;0.57;;;21.70;99.90;;;;;;5060302;28;20073;-76
2023/09/23 00:06:30;;;;;;;0.00;0.00;;;21.70;99.90;;;;;;5042062;28;20028;-76
2023/09/23 00:08:56;;;;;;;14.27;13.52;;;21.70;99.90;;;;;;5060621;28;20020;-75
2023/09/23 00:11:22;;;;;;;0.00;0.00;;;21.70;99.90;;;;;;5042316;28;20016;-76
2023/09/23 00:13:47;;;;;;;0.55;0.55;;;21.70;99.90;;;;;;5060013;28;20036;-77
2023/09/23 00:16:14;;;;;;;0.00;0.00;;;21.80;99.90;;;;;;5059529;28;20040;-76
2023/09/23 00:18:40;;;;;;;0.00;0.00;;;22.10;99.90;;;;;;5059521;28;20047;-76
2023/09/23 00:21:07;;;;;;;0.00;0.00;;;22.40;99.90;;;;;;5060225;28;20494;-76
2023/09/23 00:23:34;;;;;;;0.00;0.00;;;22.40;99.90;;;;;;5042893;28;20021;-76
2023/09/23 00:26:01;;;;;;;0.00;0.00;;;22.60;99.90;;;;;;5058984;28;20028;-78
2023/09/23 00:28:28;;;;;;;2.00;1.90;;;22.70;99.90;;;;;;5058910;28;20322;-76
2023/09/23 00:31:01;;;;;;;0.00;0.00;;;22.80;99.90;;;;;;5058997;28;20017;-76
2023/09/23 00:33:27;;;;;;;;;;;22.80;99.90;;;;;;5059464;28;20165;-76
2023/09/23 00:35:52;;;;;;;10.02;3.85;;;22.80;99.90;;;;;;5059056;28;19995;-77
2023/09/23 00:38:19;;;;;;;1.88;1.23;;;22.80;99.90;;;;;;5040215;28;20043;-76
2023/09/23 00:40:46;;;;;;;0.00;0.00;;;22.80;99.90;;;;;;5058686;28;20370;-79
2023/09/23 00:43:13;;;;;;;0.13;0.10;;;22.80;99.90;;;;;;5059450;28;20029;-76
2023/09/23 00:45:48;;;;;;;0.00;0.00;;;22.90;99.90;;;;;;5042359;28;20043;-76
2023/09/23 00:48:18;;;;;;;0.35;0.35;;;23.00;99.90;;;;;;5062299;28;20336;-76
2023/09/23 00:50:46;;;;;;;0.08;0.08;;;23.00;99.90;;;;;;5062232;28;20237;-76
2023/09/23 00:53:14;;;;;;;7.03;6.30;;;23.10;99.90;;;;;;5061550;28;20016;-79
2023/09/23 00:55:51;;;;;;;0.05;0.05;;;23.10;99.90;;;;;;5043958;28;20032;-75
2023/09/23 00:58:20;;;;;;;0.00;0.00;;;23.10;99.90;;;;;;5061758;28;20031;-76
2023/09/23 01:00:48;;;;;;;0.10;0.10;;;23.00;99.90;;;;;;5042977;28;20094;-76
2023/09/23 01:03:15;;;;;;;0.17;0.17;;;23.00;99.90;;;;;;5061055;28;20273;-76
2023/09/23 01:05:43;;;;;;;5.72;3.47;;;23.00;99.90;;;;;;5043263;28;20027;-76
2023/09/23 01:08:20;;;;;;;0.75;0.75;;;22.80;99.90;;;;;;5043316;28;20038;-76
2023/09/23 01:10:48;;;;;;;0.10;0.08;;;22.70;99.90;;;;;;5041105;28;20087;-76
2023/09/23 01:13:14;;;;;;;0.00;0.00;;;22.70;99.90;;;;;;5058539;28;20028;-82
2023/09/23 01:15:41;;;;;;;0.00;0.00;;;22.70;99.90;;;;;;5040297;28;20110;-75
2023/09/23 01:18:07;;;;;;;0.00;0.00;;;22.80;99.90;;;;;;5040884;28;20116;-76
2023/09/23 01:20:36;;;;;;;0.08;0.08;;;22.80;99.90;;;;;;5058744;28;20534;-76
2023/09/23 01:23:04;;;;;;;0.90;0.90;;;22.80;99.90;;;;;;5058673;28;20329;-77
2023/09/23 01:25:31;;;;;;;0.00;0.00;;;22.80;99.90;;;;;;5058371;28;20043;-77
2023/09/23 01:27:56;;;;;;;0.20;0.20;;;22.80;99.90;;;;;;5058529;28;20048;-76
2023/09/23 01:30:24;;;;;;;0.03;0.03;;;22.70;99.90;;;;;;5058609;28;20041;-77
2023/09/23 01:32:51;;;;;;;0.00;0.00;;;22.60;99.90;;;;;;5058296;28;20391;-77
2023/09/23 01:35:20;;;;;;;1.65;0.75;;;22.40;99.90;;;;;;5040312;28;20035;-76
2023/09/23 01:37:46;;;;;;;0.00;0.00;;;22.00;99.90;;;;;;5040224;28;20569;-77
2023/09/23 01:40:19;;;;;;;5.82;5.43;;;22.00;99.90;;;;;;5057634;28;20051;-76
2023/09/23 01:42:49;;;;;;;0.40;0.40;;;21.90;99.90;;;;;;5040691;28;20028;-76
2023/09/23 01:45:15;;;;;;;3.65;3.30;;;21.80;99.90;;;;;;5057858;28;20029;-77
2023/09/23 01:47:44;;;;;;;0.10;0.10;;;21.70;99.90;;;;;;5040377;28;20040;-78
2023/09/23 01:50:10;;;;;;;4.97;4.78;;;21.80;99.90;;;;;;5058261;28;20020;-78
2023/09/23 01:52:37;;;;;;;0.13;0.13;;;21.90;99.90;;;;;;5039512;28;20305;-77
2023/09/23 01:55:05;;;;;;;0.10;0.10;;;21.90;99.90;;;;;;5057524;28;20025;-75
2023/09/23 01:57:33;;;;;;;0.95;0.95;;;21.60;99.90;;;;;;5058086;28;20388;-78
2023/09/23 02:00:01;;;;;;;0.00;0.00;;;21.70;99.90;;;;;;5040242;28;20414;-77
2023/09/23 02:02:27;;;;;;;1.65;0.75;;;21.70;99.90;;;;;;5058292;28;20078;-76
2023/09/23 02:04:53;;;;;;;7.88;4.90;;;21.70;99.90;;;;;;5057834;28;20063;-77
2023/09/23 02:07:19;;;;;;;0.00;0.00;;;21.60;99.90;;;;;;5057358;28;20067;-77
2023/09/23 02:09:48;;;;;;;0.00;0.00;;;21.70;99.90;;;;;;5072940;28;20025;-76
2023/09/23 02:12:14;;;;;;;0.03;0.03;;;22.50;99.90;;;;;;5057763;28;20024;-77
2023/09/23 02:14:40;;;;;;;0.60;0.47;;;22.00;99.90;;;;;;5057485;28;20025;-77
2023/09/23 02:17:06;;;;;;;0.00;0.00;;;22.10;99.90;;;;;;5057799;28;20028;-76
2023/09/23 02:19:32;;;;;;;0.08;0.08;;;22.10;99.90;;;;;;5039721;28;20441;-78
2023/09/23 02:21:58;;;;;;;1.05;1.05;;;22.20;99.90;;;;;;5057494;28;20052;-77
2023/09/23 02:24:24;;;;;;;0.90;0.70;;;22.20;99.90;;;;;;5072947;28;20264;-76
2023/09/23 02:26:49;;;;;;;0.20;0.20;;;22.20;99.90;;;;;;5057747;28;20074;-78
2023/09/23 02:29:16;;;;;;;0.00;0.00;;;22.30;99.90;;;;;;5057633;28;20063;-77
2023/09/23 02:31:46;;;;;;;0.00;0.00;;;22.30;99.90;;;;;;5057566;28;20016;-76
2023/09/23 02:34:16;;;;;;;16.98;15.43;;;22.30;99.90;;;;;;5057559;28;20031;-77
2023/09/23 02:36:43;;;;;;;0.05;0.05;;;22.30;99.90;;;;;;5041213;28;20702;-76
2023/09/23 02:39:16;;;;;;;0.10;0.10;;;22.40;99.90;;;;;;5061866;28;20400;-79
2023/09/23 02:41:45;;;;;;;0.00;0.00;;;22.50;99.90;;;;;;5061493;28;20104;-77
2023/09/23 02:44:18;;;;;;;0.10;0.10;;;22.50;99.90;;;;;;5044715;28;20279;-77
2023/09/23 02:46:48;;;;;;;3.78;3.58;;;22.40;99.90;;;;;;5064999;28;20033;-76
2023/09/23 02:49:14;;;;;;;0.03;0.03;;;22.50;99.90;;;;;;5046236;28;20020;-76
2023/09/23 02:51:44;;;;;;;0.00;0.00;;;22.40;99.90;;;;;;5061440;28;20021;-76
2023/09/23 02:54:13;;;;;;;1.55;1.55;;;22.40;99.90;;;;;;5061183;28;20198;-77
2023/09/23 02:56:40;;;;;;;0.20;0.20;;;22.40;99.90;;;;;;5043206;28;20052;-80
2023/09/23 02:59:13;;;;;;;0.00;0.00;;;22.40;99.90;;;;;;5061343;28;20170;-76
2023/09/23 03:01:44;;;;;;;4.95;3.10;;;22.30;99.90;;;;;;5076972;28;20090;-76
2023/09/23 03:04:16;;;;;;;8.45;6.22;;;22.20;99.90;;;;;;5044234;28;20021;-75
2023/09/23 03:06:49;;;;;;;0.28;0.28;;;22.10;99.90;;;;;;5061713;28;20124;-76
2023/09/23 03:09:25;;;;;;;2.25;1.85;;;22.00;99.90;;;;;;5044699;28;20025;-75
2023/09/23 03:11:58;;;;;;;0.28;0.28;;;22.00;99.90;;;;;;5043747;28;20024;-76
2023/09/23 03:14:28;;;;;;;0.00;0.00;;;21.90;99.90;;;;;;5042684;28;20510;-76
2023/09/23 03:16:57;;;;;;;8.68;2.45;;;21.80;99.90;;;;;;5060845;28;20032;-76
2023/09/23 03:19:26;;;;;;;0.00;0.00;;;21.70;99.90;;;;;;5043626;28;20027;-75
2023/09/23 03:21:55;;;;;;;0.10;0.10;;;21.60;99.90;;;;;;5042808;28;20021;-75
2023/09/23 03:24:22;;;;;;;0.10;0.10;;;21.50;99.90;;;;;;5042923;28;20028;-76
2023/09/23 03:26:50;;;;;;;0.10;0.10;;;21.40;99.90;;;;;;5042816;28;20086;-78
2023/09/23 03:29:18;;;;;;;0.00;0.00;;;21.30;99.90;;;;;;5042535;28;20336;-79
2023/09/23 03:31:44;;;;;;;0.10;0.10;;;21.10;99.90;;;;;;5060638;28;20304;-76
2023/09/23 03:34:13;;;;;;;0.17;0.17;;;20.90;99.90;;;;;;5076106;28;20053;-79
2023/09/23 03:36:40;;;;;;;0.00;0.00;;;20.80;99.90;;;;;;5060602;28;20514;-77
2023/09/23 03:39:06;;;;;;;0.32;0.30;;;20.70;99.90;;;;;;5060534;28;20040;-77
2023/09/23 03:41:33;;;;;;;0.00;0.00;;;20.60;99.90;;;;;;5060331;28;20426;-76
2023/09/23 03:43:59;;;;;;;2.20;2.10;;;20.60;99.90;;;;;;5060609;28;20499;-79
2023/09/23 03:46:25;;;;;;;2.05;1.95;;;20.40;99.90;;;;;;5060513;28;20040;-77
2023/09/23 03:48:51;;;;;;;0.00;0.00;;;20.30;99.90;;;;;;5060172;28;20418;-78
2023/09/23 03:51:17;;;;;;;0.00;0.00;;;20.30;99.90;;;;;;5060281;28;20021;-77
2023/09/23 03:53:51;;;;;;;4.55;4.25;;;20.30;99.90;;;;;;5060133;28;20037;-77
2023/09/23 03:56:17;;;;;;;7.53;2.90;;;20.30;99.90;;;;;;5060103;28;20054;-77
2023/09/23 03:58:43;;;;;;;2.55;2.35;;;20.20;99.90;;;;;;5059736;28;20701;-77
2023/09/23 04:01:15;;;;;;;4.68;2.90;;;20.20;99.90;;;;;;5059763;28;20012;-80
2023/09/23 04:03:41;;;;;;;0.32;0.32;;;20.20;99.90;;;;;;5041385;28;20309;-76
2023/09/23 04:06:07;;;;;;;14.50;2.55;;;20.10;99.90;;;;;;5059653;28;20020;-77
2023/09/23 04:08:33;;;;;;;0.50;0.50;;;20.10;99.90;;;;;;5059908;28;20032;-77
2023/09/23 04:11:05;;;;;;;6.97;4.72;;;19.00;99.90;;;;;;5059752;28;20084;-80
2023/09/23 04:13:31;;;;;;;10.05;9.38;;;20.00;99.90;;;;;;5059648;28;20221;-78
2023/09/23 04:16:00;;;;;;;16.75;4.63;;;19.90;99.90;;;;;;5059533;28;20031;-77
2023/09/23 04:18:27;;;;;;;0.10;0.10;;;19.90;99.90;;;;;;5059730;28;20089;-78
2023/09/23 04:20:53;;;;;;;0.10;0.10;;;19.90;99.90;;;;;;5042188;28;20032;-77
2023/09/23 04:23:20;;;;;;;23.00;14.45;;;19.80;99.90;;;;;;5043475;28;20050;-76
2023/09/23 04:25:48;;;;;;;11.85;3.75;;;19.70;99.90;;;;;;5060707;28;20013;-77
2023/09/23 04:28:14;;;;;;;4.70;4.38;;;19.70;99.90;;;;;;5059972;28;20048;-77
2023/09/23 04:30:40;;;;;;;0.05;0.05;;;;;;;;;;5042882;28;20486;-79
2023/09/23 04:33:06;;;;;;;2.92;2.83;;;19.50;99.90;;;;;;5060443;28;20246;-77
2023/09/23 04:35:31;;;;;;;1.33;1.23;;;19.50;99.90;;;;;;5075428;28;20036;-76
2023/09/23 04:37:58;;;;;;;10.45;5.22;;;19.60;99.90;;;;;;5060152;28;20012;-79
2023/09/23 04:40:24;;;;;;;1.52;1.42;;;19.50;99.90;;;;;;5041564;28;20075;-77
2023/09/23 04:42:50;;;;;;;6.30;5.88;;;19.50;99.90;;;;;;5041178;28;20052;-78
2023/09/23 04:45:17;;;;;;;3.20;3.00;;;19.50;99.90;;;;;;5059167;28;20288;-75
2023/09/23 04:47:50;;;;;;;21.05;15.07;;;19.40;99.90;;;;;;5041470;28;20094;-77
2023/09/23 04:50:18;;;;;;;0.15;0.15;;;19.30;99.90;;;;;;5040425;28;20333;-76
2023/09/23 04:52:46;;;;;;;0.32;0.32;;;19.30;99.90;;;;;;5058901;28;20047;-76
2023/09/23 04:55:12;;;;;;;0.00;0.00;;;19.40;99.90;;;;;;5058944;28;20298;-76
2023/09/23 04:57:38;;;;;;;0.38;0.38;;;19.40;99.90;;;;;;5058753;28;20028;-77
2023/09/23 05:00:04;;;;;;;1.27;1.17;;;19.40;99.90;;;;;;5040126;28;20021;-79
2023/09/23 05:02:31;;;;;;;3.58;3.25;;;19.30;99.90;;;;;;5059111;28;20218;-76
2023/09/23 05:04:57;;;;;;;0.00;0.00;;;19.40;99.90;;;;;;5058492;28;20460;-76
2023/09/23 05:07:26;;;;;;;0.90;0.90;;;19.40;99.90;;;;;;5058342;28;20059;-76
2023/09/23 05:09:55;;;;;;;0.08;0.08;;;19.50;99.90;;;;;;5058532;28;20317;-81
2023/09/23 05:12:21;;;;;;;0.90;0.75;;;19.40;99.90;;;;;;5058730;28;20051;-74
2023/09/23 05:14:47;;;;;;;1.60;1.50;;;19.50;99.90;;;;;;5040430;28;20020;-75
2023/09/23 05:17:15;;;;;;;7.85;7.53;;;19.50;99.90;;;;;;5040639;28;20047;-75
2023/09/23 05:19:42;;;;;;;0.10;0.10;;;19.60;99.90;;;;;;5058452;28;20236;-75
2023/09/23 05:22:08;;;;;;;1.27;1.17;;;19.60;99.90;;;;;;5058577;28;20025;-77
2023/09/23 05:24:34;;;;;;;0.00;0.00;;;19.70;99.90;;;;;;5024519;28;20032;-79
2023/09/23 05:27:00;;;;;;;0.00;0.00;;;19.70;99.90;;;;;;5058044;28;20111;-78
2023/09/23 05:29:26;;;;;;;6.75;5.72;;;19.70;99.90;;;;;;5058841;28;20501;-78
2023/09/23 05:31:53;;;;;;;0.10;0.10;;;19.70;99.90;;;;;;5059637;28;20027;-78
2023/09/23 05:34:19;;;;;;;0.10;0.10;;;19.70;99.90;;;;;;5058566;28;20039;-78
2023/09/23 05:36:45;;;;;;;7.15;6.60;;;19.70;99.90;;;;;;5058012;28;20020;-78
2023/09/23 05:39:18;;;;;;;0.57;0.57;;;19.80;99.90;;;;;;5041285;28;20017;-75
2023/09/23 05:41:45;;;;;;;0.10;0.10;;;19.80;99.90;;;;;;5058338;28;20016;-75
2023/09/23 05:44:12;;;;;;;0.00;0.00;;;19.90;99.90;;;;;;5040267;28;20550;-75
2023/09/23 05:46:38;;;;;;;19.15;2.08;;;19.90;99.90;;;;;;5058345;28;20040;-75
2023/09/23 05:49:08;;;;;;;1.15;1.13;;;19.90;99.90;;;;;;5024259;28;20082;-75
2023/09/23 05:51:34;;;;;;;14.88;13.80;;;19.90;99.90;;;;;;5023715;28;20044;-75
2023/09/23 05:54:03;;;;;;;0.10;0.10;;;20.00;99.90;;;;;;5042820;28;20021;-77
2023/09/23 05:56:29;;;;;;;0.00;0.00;;;20.00;99.90;;;;;;5041332;28;20035;-88
2023/09/23 05:58:55;;;;;;;0.00;0.00;;;20.00;99.90;;;;;;5060817;28;20024;-79
2023/09/23 06:01:21;;;;;;;0.00;0.00;;;20.10;99.90;;;;;;5060895;28;20296;-80
2023/09/23 06:03:49;;;;;;;0.00;0.00;;;20.10;99.90;;;;;;5041575;28;20029;-77
2023/09/23 06:06:15;;;;;;;0.30;0.30;;;19.60;99.90;;;;;;5057864;28;20066;-78
2023/09/23 06:08:40;;;;;;;0.10;0.10;;;20.10;99.90;;;;;;5058642;28;20083;-77
2023/09/23 06:11:09;;;;;;;2.22;2.05;;;18.00;99.90;;;;;;5058027;28;20221;-76
2023/09/23 06:13:35;;;;;;;1.85;1.75;;;20.10;99.90;;;;;;5057899;28;20524;-82
2023/09/23 06:16:04;;;;;;;0.13;0.13;;;20.20;99.90;;;;;;5057947;28;20051;-76
2023/09/23 06:18:30;;;;;;;0.10;0.10;;;20.20;99.90;;;;;;5057911;28;20047;-80
2023/09/23 06:20:58;;;;;;;0.95;0.95;;;20.30;99.90;;;;;;5058351;28;20221;-77
2023/09/23 06:23:24;;;;;;;0.30;0.20;;;20.30;99.90;;;;;;5057923;28;20032;-79
2023/09/23 06:25:55;;;;;;;2.55;1.45;;;20.40;99.90;;;;;;5058448;28;20217;-78
2023/09/23 06:28:22;;;;;;;0.10;0.10;;;20.50;99.90;;;;;;5040454;28;20090;-77
2023/09/23 06:30:48;;;;;;;3.85;3.58;;;20.40;99.90;;;;;;5039710;28;20070;-76
2023/09/23 06:33:14;;;;;;;0.10;0.10;;;20.50;99.90;;;;;;5040067;28;20021;-77
2023/09/23 06:35:40;;;;;;;51.70;36.05;;;20.50;99.90;;;;;;5057739;28;20401;-77
2023/09/23 06:38:06;;;;;;;4.57;1.88;;;21.50;99.90;;;;;;5058013;28;20341;-80
2023/09/23 06:40:35;;;;;;;0.00;0.00;;;20.60;99.90;;;;;;5042255;28;20312;-76
2023/09/23 06:43:01;;;;;;;2.05;1.95;;;20.60;99.90;;;;;;5075591;28;20106;-76
2023/09/23 06:45:26;;;;;;;0.57;0.57;;;20.70;99.90;;;;;;5042752;28;20537;-79
2023/09/23 06:47:52;;;;;;;0.10;0.10;;;20.70;99.90;;;;;;5061691;28;20710;-77
2023/09/23 06:50:19;;;;;;;0.25;0.25;;;20.70;99.90;;;;;;5058234;28;20017;-77
2023/09/23 06:52:45;;;;;;;0.05;0.05;;;20.20;99.90;;;;;;5042545;28;20372;-81
2023/09/23 06:55:10;;;;;;;0.40;0.40;;;21.00;99.90;;;;;;5059139;28;20048;-82
2023/09/23 06:57:36;;;;;;;18.42;5.78;;;21.20;99.90;;;;;;5057662;28;20020;-77
2023/09/23 07:00:06;;;;;;;0.03;0.03;;;22.60;99.90;;;;;;5059480;28;20025;-90
2023/09/23 07:02:33;;;;;;;0.40;0.40;;;21.50;99.90;;;;;;5040929;28;20035;-82
2023/09/23 07:04:59;;;;;;;0.35;0.22;;;21.80;99.90;;;;;;5058564;28;20075;-78
2023/09/23 07:07:26;;;;;;;0.00;0.00;;;21.90;99.90;;;;;;5058676;28;20286;-77
2023/09/23 07:09:52;;;;;;;0.00;0.00;;;22.00;99.90;;;;;;5058386;28;20297;-76
2023/09/23 07:12:18;;;;;;;1.27;0.93;;;;;;;;;;5058631;28;20391;-77
2023/09/23 07:14:44;;;;;;;0.00;0.00;;;22.30;99.90;;;;;;5040334;28;20181;-75
2023/09/23 07:17:10;;;;;;;0.10;0.10;;;22.40;99.90;;;;;;5057426;28;20534;-76
2023/09/23 07:19:36;;;;;;;0.30;0.30;;;22.50;99.90;;;;;;5058290;28;20195;-76
2023/09/23 07:22:03;;;;;;;0.20;0.20;;;22.70;99.90;;;;;;5058019;28;20562;-78
2023/09/23 07:24:32;;;;;;;0.52;0.52;;;22.70;99.90;;;;;;5061799;28;20093;-81
2023/09/23 07:26:59;;;;;;;4.57;4.28;;;22.90;99.90;;;;;;5062643;28;20031;-77
2023/09/23 07:29:25;;;;;;;0.00;0.00;;;23.00;99.90;;;;;;5062276;28;20108;-79
2023/09/23 07:31:53;;;;;;;0.00;0.00;;;23.20;99.90;;;;;;5061247;28;20012;-76
2023/09/23 07:34:20;;;;;;;0.00;0.00;;;23.30;99.90;;;;;;5061720;28;20074;-76
2023/09/23 07:36:46;;;;;;;0.93;0.88;;;23.20;99.90;;;;;;5060755;28;20091;-75
2023/09/23 07:39:12;;;;;;;4.65;2.38;;;23.40;99.90;;;;;;5043653;28;20033;-78
2023/09/23 07:41:38;;;;;;;0.10;0.10;;;23.50;99.90;;;;;;5061236;28;20028;-80
2023/09/23 07:44:05;;;;;;;0.05;0.05;;;23.60;99.90;;;;;;5060395;28;20198;-76
2023/09/23 07:46:31;;;;;;;0.20;0.20;;;23.60;99.90;;;;;;5060317;28;20141;-78
2023/09/23 07:48:56;;;;;;;0.10;0.10;;;22.10;99.90;;;;;;5060408;28;20055;-79
2023/09/23 07:51:22;;;;;;;0.00;0.00;;;23.90;99.90;;;;;;5061669;28;20036;-79
2023/09/23 07:53:51;;;;;;;0.22;0.22;;;24.10;99.90;;;;;;5059957;28;20098;-76
2023/09/23 07:56:19;;;;;;;0.45;0.45;;;24.40;99.90;;;;;;5060653;28;20070;-79
2023/09/23 07:58:45;;;;;;;0.80;0.80;;;24.60;98.50;;;;;;5060222;28;20023;-78
2023/09/23 08:01:11;;;;;;;0.03;0.03;;;24.80;97.20;;;;;;5061098;28;20478;-77
2023/09/23 08:03:37;;;;;;;0.20;0.20;;;24.90;96.30;;;;;;5061264;28;20043;-75
2023/09/23 08:06:03;;;;;;;0.10;0.10;;;27.50;96.30;;;;;;5064067;28;20682;-76
2023/09/23 08:08:29;;;;;;;0.00;0.00;;;25.20;94.50;;;;;;5061469;28;20074;-76
2023/09/23 08:10:55;;;;;;;1.20;0.95;;;25.20;94.70;;;;;;5062097;28;20451;-77
2023/09/23 08:13:20;;;;;;;11.20;2.55;;;25.30;94.50;;;;;;5061736;28;20020;-76
2023/09/23 08:15:47;;;;;;;0.00;0.00;;;25.50;93.40;;;;;;5060347;28;20025;-76
2023/09/23 08:18:13;;;;;;;0.70;0.70;;;25.60;92.90;;;;;;5061014;28;20021;-76
2023/09/23 08:20:40;;;;;;;0.00;0.00;;;25.70;92.00;;;;;;5041538;28;20035;-77
2023/09/23 08:23:06;;;;;;;44.47;2.72;;;25.80;92.00;;;;;;5043868;28;20020;-76
2023/09/23 08:25:32;;;;;;;2.80;0.85;;;25.90;92.20;;;;;;5059911;28;20170;-76
2023/09/23 08:27:58;;;;;;;1.45;0.80;;;26.00;91.60;;;;;;5043354;28;20055;-76
2023/09/23 08:30:25;;;;;;;0.00;0.00;;;26.10;91.00;;;;;;5045412;28;20158;-81
2023/09/23 08:32:53;;;;;;;0.15;0.10;;;26.10;91.40;;;;;;5062735;28;20103;-76
2023/09/23 08:35:20;;;;;;;0.10;0.10;;;26.40;90.90;;;;;;5060230;28;20016;-76
2023/09/23 08:37:46;;;;;;;0.00;0.00;;;26.40;91.00;;;;;;5062996;28;20023;-80
2023/09/23 08:40:12;;;;;;;0.20;0.20;;;26.40;90.70;;;;;;5061716;28;20026;-76
2023/09/23 08:42:39;;;;;;;0.08;0.08;;;26.40;90.60;;;;;;5044892;28;20313;-80
2023/09/23 08:45:11;;;;;;;5.82;1.25;;;26.40;90.60;;;;;;5061849;28;20025;-76
2023/09/23 08:47:37;;;;;;;0.30;0.30;;;26.50;90.50;;;;;;5060523;28;20033;-77
2023/09/23 08:50:08;;;;;;;3.92;0.73;;;26.60;90.10;;;;;;5044436;28;20105;-80
2023/09/23 08:52:35;;;;;;;8.15;6.57;;;25.40;89.30;;;;;;5066880;28;20048;-77
2023/09/23 08:55:04;;;;;;;0.10;0.10;;;26.70;90.30;;;;;;5063150;28;20373;-83
2023/09/23 08:57:33;;;;;;;0.15;0.10;;;26.70;90.10;;;;;;5065482;28;20496;-76
2023/09/23 08:59:59;;;;;;;1.75;1.65;;;26.90;90.00;;;;;;5046445;28;20017;-78
2023/09/23 09:02:26;;;;;;;14.13;3.50;;;27.00;90.00;;;;;;5063377;28;20016;-76
2023/09/23 09:04:54;;;;;;;0.05;0.05;;;27.20;89.60;;;;;;5063208;28;20021;-78
2023/09/23 09:07:24;;;;;;;0.20;0.20;;;27.40;88.80;;;;;;5059905;28;20116;-77
2023/09/23 09:09:49;;;;;;;0.00;0.00;;;27.50;88.90;;;;;;5042004;28;20027;-78
2023/09/23 09:12:16;;;;;;;0.00;0.00;;;25.00;86.30;;;;;;5063881;28;20111;-76
2023/09/23 09:14:42;;;;;;;1.63;1.23;;;27.70;87.80;;;;;;5060272;28;20028;-76
2023/09/23 09:17:12;;;;;;;0.57;0.52;;;25.40;87.80;;;;;;5060340;28;20033;-76
2023/09/23 09:19:39;;;;;;;0.17;0.17;;;28.20;88.20;;;;;;5060175;28;20020;-76
2023/09/23 09:22:07;;;;;;;3.42;3.13;;;28.50;87.00;;;;;;5059429;28;20498;-76
2023/09/23 09:24:33;;;;;;;2.38;2.17;;;28.90;86.60;;;;;;5042175;28;20028;-77
2023/09/23 09:26:59;;;;;;;1.23;1.13;;;29.00;86.50;;;;;;5041606;28;20039;-78
2023/09/23 09:29:26;;;;;;;0.80;0.60;;;29.40;85.80;;;;;;5061161;28;20025;-75
2023/09/23 09:31:59;;;;;;;1.48;1.38;;;29.60;84.70;;;;;;5042451;28;20628;-77
2023/09/23 09:34:28;;;;;;;0.30;0.30;;;29.80;85.00;;;;;;5061814;28;20113;-76
2023/09/23 09:36:57;;;;;;;15.25;0.85;;;29.90;83.50;;;;;;5042909;28;20159;-77
2023/09/23 09:39:28;;;;;;;2.90;1.65;;;30.00;82.60;;;;;;5063652;28;20016;-81
2023/09/23 09:41:56;;;;;;;0.05;0.05;;;30.20;82.00;;;;;;5059985;28;20028;-79
2023/09/23 09:44:28;;;;;;;0.20;0.20;;;30.60;82.90;;;;;;5059824;28;20583;-78
2023/09/23 09:46:55;;;;;;;0.25;0.25;;;30.70;81.10;;;;;;5060305;28;20060;-76
2023/09/23 09:49:21;;;;;;;3.85;2.72;;;30.90;80.80;;;;;;5059715;28;20028;-76
2023/09/23 09:51:48;;;;;;;0.45;0.40;;;29.90;79.90;;;;;;5075494;28;20027;-76
2023/09/23 09:54:18;;;;;;;2.05;1.85;;;31.40;80.20;;;;;;5041617;28;20094;-82
2023/09/23 09:56:47;;;;;;;0.10;0.10;;;31.60;77.90;;;;;;5059418;28;20078;-78
2023/09/23 09:59:26;;;;;;;0.00;0.00;;;31.60;78.10;;;;;;5059768;28;20573;-80
2023/09/23 10:01:59;;;;;;;0.10;0.10;;;31.60;77.40;;;;;;5059656;28;20035;-77
2023/09/23 10:04:35;;;;;;;0.52;0.38;;;32.10;77.50;;;;;;5058946;28;20614;-77
2023/09/23 10:07:05;;;;;;;0.00;0.00;;;31.60;79.30;;;;;;5059341;28;20049;-76
2023/09/23 10:09:32;;;;;;;2.53;2.40;;;31.70;79.00;;;;;;5041279;28;20023;-78
2023/09/23 10:11:59;;;;;;;15.90;1.75;;;29.70;77.80;;;;;;5040926;28;20108;-76
2023/09/23 10:14:28;;;;;;;0.10;0.10;;;31.70;78.50;;;;;;5040155;28;20503;-76
2023/09/23 10:16:59;;;;;;;0.25;0.25;;;31.70;76.60;;;;;;5059584;28;20035;-76
2023/09/23 10:19:49;;;;;;;0.20;0.20;;;31.60;76.00;;;;;;5058964;28;20074;-76
2023/09/23 10:22:21;;;;;;;1.17;1.08;;;31.70;76.50;;;;;;5073993;28;20036;-76
2023/09/23 10:25:04;;;;;;;1.70;0.90;;;31.50;76.40;;;;;;5073894;28;20526;-75
2023/09/23 10:27:31;;;;;;;5.32;3.13;;;31.60;75.50;;;;;;5040973;28;20128;-77
2023/09/23 10:29:57;;;;;;;0.47;0.32;;;31.50;75.10;;;;;;5059288;28;20020;-76
2023/09/23 10:32:23;;;;;;;14.43;1.23;;;31.50;75.10;;;;;;5040891;28;20028;-77
2023/09/23 10:34:55;;;;;;;5.28;1.52;;;31.40;75.50;;;;;;5058281;28;20020;-75
2023/09/23 10:37:32;;;;;;;0.35;0.30;;;30.60;74.80;;;;;;5039431;28;20032;-80
2023/09/23 10:40:09;;;;;;;0.98;0.43;;;30.70;75.10;;;;;;5041747;28;20028;-75
2023/09/23 10:42:35;;;;;;;0.13;0.13;;;30.70;75.00;;;;;;5059640;28;20410;-80
2023/09/23 10:45:01;;;;;;;0.40;0.40;;;30.80;75.90;;;;;;5060253;28;20225;-77
2023/09/23 10:47:28;;;;;;;1.65;1.02;;;30.40;76.40;;;;;;5059798;28;20033;-76
2023/09/23 10:49:54;;;;;;;0.75;0.75;;;31.10;76.30;;;;;;5060087;28;20094;-76
2023/09/23 10:52:21;;;;;;;1.65;1.55;;;30.00;77.00;;;;;;5059521;28;20237;-78
2023/09/23 10:54:51;;;;;;;0.70;0.30;;;30.50;76.70;;;;;;5061080;28;20344;-81
2023/09/23 10:57:17;;;;;;;2.13;0.38;;;29.90;76.00;;;;;;5062297;28;20130;-76
2023/09/23 10:59:44;;;;;;;1.83;0.95;;;29.80;76.10;;;;;;5063854;28;20046;-78
2023/09/23 11:02:11;;;;;;;0.60;0.60;;;29.50;77.00;;;;;;5082899;28;20249;-77
2023/09/23 11:04:37;;;;;;;0.30;0.30;;;29.30;76.90;;;;;;5067288;28;20521;-76
2023/09/23 11:07:03;;;;;;;1.65;1.48;;;29.30;76.30;;;;;;5064318;28;20059;-81
2023/09/23 11:09:30;;;;;;;1.35;0.82;;;29.40;77.20;;;;;;5068457;28;20036;-77
2023/09/23 11:12:13;;;;;;;4.95;4.25;;;30.00;77.40;;;;;;5068826;28;20020;-79
2023/09/23 11:14:43;;;;;;;0.00;0.00;;;30.00;76.40;;;;;;5066668;28;20028;-75
2023/09/23 11:17:25;;;;;;;0.57;0.57;;;30.40;76.30;;;;;;5062993;28;20317;-76
2023/09/23 11:19:55;;;;;;;14.77;0.85;;;30.50;74.80;;;;;;5066361;28;20024;-77
2023/09/23 11:22:29;;;;;;;0.00;0.00;;;30.70;73.80;;;;;;5064873;28;20059;-77
2023/09/23 11:24:57;;;;;;;0.00;0.00;;;30.80;74.40;;;;;;5063832;28;20047;-79
2023/09/23 11:27:27;;;;;;;0.10;0.08;;;30.90;74.20;;;;;;5044927;28;20444;-77
2023/09/23 11:29:54;;;;;;;6.45;1.27;;;30.50;74.80;;;;;;5064382;28;20401;-81
2023/09/23 11:32:22;;;;;;;0.03;0.03;;;30.40;74.70;;;;;;5046225;28;20454;-78
2023/09/23 11:34:51;;;;;;;8.48;5.78;;;30.20;74.70;;;;;;5046098;28;20182;-76
2023/09/23 11:37:20;;;;;;;2.65;2.47;;;30.20;75.30;;;;;;5063479;28;20470;-80
2023/09/23 11:39:47;;;;;;;0.40;0.40;;;30.00;75.00;;;;;;5063418;28;20107;-76
2023/09/23 11:42:12;;;;;;;0.28;0.28;;;29.90;75.00;;;;;;5043702;28;20502;-81
2023/09/23 11:44:38;;;;;;;0.47;0.40;;;29.80;75.30;;;;;;5054068;28;20073;-84
2023/09/23 11:47:05;;;;;;;0.45;0.43;;;29.80;76.10;;;;;;5060372;28;20067;-78
2023/09/23 11:49:31;;;;;;;5.88;1.30;;;29.90;75.80;;;;;;5050303;28;20123;-84
2023/09/23 11:52:00;;;;;;;0.00;0.00;;;28.20;74.00;;;;;;5044483;28;20553;-77
2023/09/23 11:54:26;;;;;;;0.32;0.20;;;30.00;74.70;;;;;;5043064;28;20044;-83
2023/09/23 11:56:52;;;;;;;1.90;0.70;;;29.90;75.00;;;;;;5063230;28;20529;-81
2023/09/23 11:59:21;;;;;;;0.10;0.10;;;30.10;74.30;;;;;;5061336;28;20390;-79
2023/09/23 12:01:50;;;;;;;0.17;0.17;;;30.00;74.50;;;;;;5044161;28;20019;-77
2023/09/23 12:04:15;;;;;;;0.15;0.13;;;30.00;75.00;;;;;;5044728;28;20024;-76
2023/09/23 12:06:41;;;;;;;3.03;1.50;;;29.80;73.90;;;;;;5044264;28;20650;-76
2023/09/23 12:09:09;;;;;;;7.60;7.13;;;29.70;73.90;;;;;;5064121;28;20321;-76
2023/09/23 12:11:36;;;;;;;0.00;0.00;;;29.60;75.10;;;;;;5061541;28;20020;-76
2023/09/23 12:14:02;;;;;;;0.35;0.20;;;29.60;75.10;;;;;;5047477;28;20089;-76
2023/09/23 12:16:29;;;;;;;0.10;0.10;;;29.70;74.70;;;;;;5067556;28;20020;-78
2023/09/23 12:18:54;;;;;;;0.60;0.55;;;29.60;75.70;;;;;;5066521;28;20035;-77
2023/09/23 12:21:20;;;;;;;0.03;0.03;;;29.10;74.70;;;;;;5062716;28;20470;-77
2023/09/23 12:23:46;;;;;;;3.53;0.43;;;29.40;74.90;;;;;;5080978;28;20521;-78
2023/09/23 12:26:12;;;;;;;0.10;0.10;;;29.40;74.80;;;;;;5065732;28;20024;-77
2023/09/23 12:28:38;;;;;;;0.00;0.00;;;29.20;74.50;;;;;;5060971;28;20048;-78
2023/09/23 12:31:04;;;;;;;0.20;0.20;;;29.10;74.50;;;;;;5065631;28;20073;-77
2023/09/23 12:33:31;;;;;;;0.63;0.63;;;29.00;75.00;;;;;;5065656;28;20051;-77
2023/09/23 12:35:57;;;;;;;0.00;0.00;;;28.10;86.20;;;;;;5046012;28;20021;-76
2023/09/23 12:38:23;;;;;;;0.05;0.05;;;26.70;91.20;;;;;;5044317;28;20324;-76
2023/09/23 12:40:50;;;;;;;0.47;0.25;;;25.70;93.10;;;;;;5062451;28;20028;-76
2023/09/23 12:43:16;;;;;;;0.08;0.08;;;25.00;96.10;;;;;;5065694;28;20020;-76
2023/09/23 12:45:43;;;;;;;0.57;0.57;;;24.40;99.00;;;;;;5063720;28;20024;-77
2023/09/23 12:48:10;;;;;;;1.63;1.05;;;24.10;99.90;;;;;;5045786;28;20546;-76
2023/09/23 12:50:36;;;;;;;0.00;0.00;;;24.00;99.90;;;;;;5045258;28;20394;-76